หน้าหลัก
METAR-TAF:

METAR-TAF

ท่าอากาศยาน :

Fort Bliss, เทกซัส, สหรัฐอเมริกา

ละติจูด: 31-50-58N, ลองจิจูด: 106-22-48W, ความสูง: 1203 ม.

การสังเกตสภาพอากาศปัจจุบัน

รายงานได้ทำขึ้นเมื่อ 50 นาทีที่แล้ว ณ เวลา 14:55 UTC
ลม 3 นอตจากตะวันออกเฉียงใต้
อุณหภูมิ 27°C
ความชื้น 48%
ความกดอากาศ 1019 hPa
ทัศนวิสัย: 16.1 กม.
ท้องฟ้าแจ่มใส

METAR: KBIF 121455Z AUTO 13003KT 10SM CLR 27/15 A3010 RMK AO2 SLP116 T02740154 52014 $

เวลา: 09:45 (15:45 UTC)

การพยากรณ์

รายงานได้ทำขึ้นเมื่อ 4 ชั่วโมงและ 45 นาทีที่แล้ว ณ เวลา 11:00 UTC
การพยากรณ์มีผลตั้งแต่วันที่ 12 ณ เวลา 11 UTC จนถึงวันที่ 13 ณ เวลา 17 UTC
ลม 6 นอตจากทิศทางซึ่งแปรผันได้
ทัศนวิสัย 10 กม. หรือมากกว่า
ท้องฟ้าแจ่มใส

TAF: KBIF 121100Z 1211/1317 VRB06KT 9999 SKC QNH2995INS TX38/1222Z TN24/1212Z

สังเกตการณ์สภาพอากาศและพยากรณ์อากาศของสนามบินมากกว่า 4000 แห่ง (รายงาน METAR และ TAF).

สถานีที่ดูได้จะแสดงไว้ด้วยจุดสีเหลืองและสีแดงบนแผนที่.

เลื่อนเมาส์ไปเหนือจุดเพื่อดูชื่อสถานี.

แล้วคลิกเพื่อดูสังเกตการณ์และการพยากรณ์สภาพอากาศ.

ในการเปลี่ยนแผนที่: คลิกที่ปุ่มสีเขียวที่มีกากบาทสีดำเพื่อซูมเข้า; ที่ปุ่มสีเขียวที่มีขีดเพื่อซูมออก; หรือที่ลูกศรสีเขียวเพื่อไปยังแผนที่ที่อยู่ติดกัน.


METAR-TAF: